Betty K Ix — 3FTL3 — position and weather

sailwx.info

Track history (hours):
 
Tides and Currents Weather Stations Pressure Air Temp Water Temp Dewpoint Dewpoint Depression Visibility Wind Speed Wind Dir Waves Ship Positions

Betty K Ix

Last reported at 2018-Jul-15 02:25 UTC. Time now 2018-Jul-17 22:54 UTC.
Position N 14°42' W 061°21'.

Length 86 m; draft 4.4 m.

Type: Cargo ship. MMSI: 354064000.

Date/timePositionNaut miles runAvg speedWind from/ knotsBaromVisibWave heightAir tempDewpointWater temp
2018-Jul-15 02:25N 14°42' W 061°21'5 9.7
2018-Jul-15 01:57N 14°37' W 061°19'10 9.3
2018-Jul-15 00:53N 14°35' W 061°09'6 9.0
2018-Jul-15 00:14N 14°35' W 061°03'0 1.0
2018-Jul-15 00:00N 14°35' W 061°03'0 0.0
2018-Jul-14 23:24N 14°35' W 061°03'0 0.0
2018-Jul-14 22:54N 14°35' W 061°03'0 0.0
2018-Jul-14 22:30N 14°35' W 061°03'0 0.0
2018-Jul-14 21:54N 14°35' W 061°03'0 0.0
2018-Jul-14 21:30N 14°35' W 061°03'0 0.0
2018-Jul-14 21:00N 14°35' W 061°03'0 0.0
2018-Jul-14 20:27N 14°35' W 061°03'0 0.0
2018-Jul-14 20:00N 14°35' W 061°03'0 0.0
2018-Jul-14 19:27N 14°35' W 061°03'0 0.0
2018-Jul-14 18:57N 14°35' W 061°03'0 0.0
2018-Jul-14 18:30N 14°35' W 061°03'0 0.0
2018-Jul-14 18:01N 14°35' W 061°03'0 0.0
2018-Jul-14 17:31N 14°35' W 061°03'0 0.0
2018-Jul-14 17:01N 14°35' W 061°03'0 0.0
2018-Jul-14 16:31N 14°35' W 061°03'0 0.0
2018-Jul-14 16:01N 14°35' W 061°03'0 0.0
2018-Jul-14 15:31N 14°35' W 061°03'0 0.1
2018-Jul-14 15:01N 14°35' W 061°03'2 4.8
2018-Jul-14 14:31N 14°35' W 061°06'10 9.8
2018-Jul-14 13:31N 14°38' W 061°15'171 4.2
2018-Jul-12 20:40N 17°07' W 062°43'2 9.5
2018-Jul-12 20:29N 17°09' W 062°43'34 4.8
2018-Jul-12 13:31N 17°36' W 063°04'0 9.3
2018-Jul-12 13:28N 17°36' W 063°04'5 9.2
2018-Jul-12 12:58N 17°41' W 063°04'5 9.2
2018-Jul-12 12:27N 17°46' W 063°05'4 9.2
2018-Jul-12 11:59N 17°50' W 063°05'5 9.4
2018-Jul-12 11:29N 17°55' W 063°05'5 9.4
2018-Jul-12 11:00N 17°59' W 063°05'2 0.4
2018-Jul-12 04:54N 18°01' W 063°03'0 0.0
2018-Jul-11 23:17N 18°01' W 063°03'0 0.0
2018-Jul-11 22:47N 18°01' W 063°03'0 0.1
2018-Jul-11 19:00N 18°00' W 063°03'2 3.9
2018-Jul-11 18:24N 17°60' W 063°05'3 7.3
2018-Jul-11 18:00N 17°57' W 063°07'7 9.9
2018-Jul-11 17:19N 17°51' W 063°06'5 9.9
2018-Jul-11 16:48N 17°46' W 063°06'410.0
2018-Jul-11 16:27N 17°42' W 063°05'510.3
2018-Jul-11 16:00N 17°37' W 063°05'4110.1
2018-Jul-11 11:54N 17°02' W 062°42'510.4
2018-Jul-11 11:28N 16°59' W 062°39'610.0
2018-Jul-11 10:52N 16°54' W 062°35'  
2018-Jul-07 10:19N 14°30' W 061°20'3 8.5
2018-Jul-07 10:00N 14°32' W 061°21'4 8.4
2018-Jul-07 09:28N 14°37' W 061°23'  
Track history (hours):
 
Tides and Currents Weather Stations Pressure Air Temp Water Temp Dewpoint Dewpoint Depression Visibility Wind Speed Wind Dir Waves Ship Positions

Betty K Ix

Last reported at 2018-Jul-15 02:25 UTC. Time now 2018-Jul-17 22:54 UTC.
Position N 14°42' W 061°21'.

Length 86 m; draft 4.4 m.

Type: Cargo ship. MMSI: 354064000.

Date/timePositionNaut miles runAvg speedWind from/ knotsBaromVisibWave heightAir tempDewpointWater temp
2018-Jul-15 02:25N 14°42' W 061°21'5 9.7
2018-Jul-15 01:57N 14°37' W 061°19'10 9.3
2018-Jul-15 00:53N 14°35' W 061°09'6 9.0
2018-Jul-15 00:14N 14°35' W 061°03'0 1.0
2018-Jul-15 00:00N 14°35' W 061°03'0 0.0
2018-Jul-14 23:24N 14°35' W 061°03'0 0.0
2018-Jul-14 22:54N 14°35' W 061°03'0 0.0
2018-Jul-14 22:30N 14°35' W 061°03'0 0.0
2018-Jul-14 21:54N 14°35' W 061°03'0 0.0
2018-Jul-14 21:30N 14°35' W 061°03'0 0.0
2018-Jul-14 21:00N 14°35' W 061°03'0 0.0
2018-Jul-14 20:27N 14°35' W 061°03'0 0.0
2018-Jul-14 20:00N 14°35' W 061°03'0 0.0
2018-Jul-14 19:27N 14°35' W 061°03'0 0.0
2018-Jul-14 18:57N 14°35' W 061°03'0 0.0
2018-Jul-14 18:30N 14°35' W 061°03'0 0.0
2018-Jul-14 18:01N 14°35' W 061°03'0 0.0
2018-Jul-14 17:31N 14°35' W 061°03'0 0.0
2018-Jul-14 17:01N 14°35' W 061°03'0 0.0
2018-Jul-14 16:31N 14°35' W 061°03'0 0.0
2018-Jul-14 16:01N 14°35' W 061°03'0 0.0
2018-Jul-14 15:31N 14°35' W 061°03'0 0.1
2018-Jul-14 15:01N 14°35' W 061°03'2 4.8
2018-Jul-14 14:31N 14°35' W 061°06'10 9.8
2018-Jul-14 13:31N 14°38' W 061°15'171 4.2
2018-Jul-12 20:40N 17°07' W 062°43'2 9.5
2018-Jul-12 20:29N 17°09' W 062°43'34 4.8
2018-Jul-12 13:31N 17°36' W 063°04'0 9.3
2018-Jul-12 13:28N 17°36' W 063°04'5 9.2
2018-Jul-12 12:58N 17°41' W 063°04'5 9.2
2018-Jul-12 12:27N 17°46' W 063°05'4 9.2
2018-Jul-12 11:59N 17°50' W 063°05'5 9.4
2018-Jul-12 11:29N 17°55' W 063°05'5 9.4
2018-Jul-12 11:00N 17°59' W 063°05'2 0.4
2018-Jul-12 04:54N 18°01' W 063°03'0 0.0
2018-Jul-11 23:17N 18°01' W 063°03'0 0.0
2018-Jul-11 22:47N 18°01' W 063°03'0 0.1
2018-Jul-11 19:00N 18°00' W 063°03'2 3.9
2018-Jul-11 18:24N 17°60' W 063°05'3 7.3
2018-Jul-11 18:00N 17°57' W 063°07'7 9.9
2018-Jul-11 17:19N 17°51' W 063°06'5 9.9
2018-Jul-11 16:48N 17°46' W 063°06'410.0
2018-Jul-11 16:27N 17°42' W 063°05'510.3
2018-Jul-11 16:00N 17°37' W 063°05'4110.1
2018-Jul-11 11:54N 17°02' W 062°42'510.4
2018-Jul-11 11:28N 16°59' W 062°39'610.0
2018-Jul-11 10:52N 16°54' W 062°35'  
2018-Jul-07 10:19N 14°30' W 061°20'3 8.5
2018-Jul-07 10:00N 14°32' W 061°21'4 8.4
2018-Jul-07 09:28N 14°37' W 061°23'  

Dump ship's entire track history